Warning: Javascript must be enabled to use all the features on this page!


Page Loading - Please Wait...

Click to hideNews Bulletins

Peak Streamflow for the Nation

USGS 04289600 WINOOSKI RIVER TRIBUTARY NEAR RICHMOND, VT

Chittenden County, Vermont
Hydrologic Unit Code 04150403
Latitude  44°26'09", Longitude  72°58'46" NAD27
Drainage area 0.71  square miles
Gage datum 710 feet above NGVD29
Output formats
Table
Graph
Tab-separated file
peakfq (watstore) format
Reselect output format
Water
Year
Date Gage
Height
(feet)
Stream-
flow
(cfs)
1964 1964-03-04 12.02 50.0
1965 1965-04-22 10.72 16.0
1966 1966-03-06 11.07 23.0
1967 1967-04-03 10.95 21.0
1968 1968-03-19 11.55 33.0
1969 1969-04-19 11.05 23.0
1970 1970-04-24 11.46 31.0
1971 1971-05-04 11.46 31.0
1972 1972-06-15 14.59 102
1973 1973-06-30 11.48 32.0
1974 1974-04-04 11.53 33.0
1999 1999-03-22 12.77 55.0
2000 2000-05-10 12.49 48.0
2001 2000-12-17 11.88 34.0
2002 2002-09-28 12.05 38.0
2003 2003-03-21 10.81 13.0
2004 2003-10-29 12.95 59.0
2005 2004-12-23 11.27 21.0
2006 2006-05-19 13.47 68.0
2007 2006-10-20 12.10 35.0
2008 2008-04-12 12.07 35.0
2009 2008-12-28 10.95 12.0
2010 2010-01-25 12.64 46.0
2011 2011-04-27 14.28 85.0
2012 2012-05-08 12.15 35.0
2013 2013-06-25 17.40 138
2014 2014-04-15 11.86 27.0
2015 2014-12-25 11.62 22.0
2016 2016-02-25 12.49 40.0
2017 2017-06-29 13.39 60.0
2018 2018-05-04 13.42 61.0
2019 2019-04-20 12.69 43.0
2020 2019-11-01 15.68 111
2021 2021-03-26 11.96 26.0